Miley Memorial field
KBPI : rendu visible

Aérodrome :











RETROUVEZ-NOUS SUR...

 
LOGIN :

S'inscrire | Disclaimer

   EN    FR    IT 

 









Légende :    VFR   VFR Marginal   IFR   IFR Intensif   IFR Très Intensif
Visi : 
Plafond : 
>= 8 km
>= 3000ft
5 à 8 km
1000 à 3000 ft
1500m à 5 km
500 à 1000 ft
800 à 1500m
200 à 500 ft
< 800m
< 200 ft
Symboles :   Orages  Brouillard  Fortes neiges  Fortes précipitations  Vent > 20 kt






- Altitude de l'aérodrome : 6990 ft


KBPI - Miley Memorial field

DERNIER METAR :
  • 040753Z AUTO 33006KT 10SM CLR 07/03 A3012 RMK AO2 SLP123 T00670033

METARs EXPIRÉS :
  • 040653Z AUTO 34003KT 10SM CLR 08/03 A3014 RMK AO2 SLP118 T00830033 402390039
  • 040553Z AUTO 35005KT 10SM CLR 09/04 A3015 RMK AO2 SLP122 T00940039 10239 20083 58004
  • 040453Z AUTO 30003KT 10SM CLR 11/05 A3015 RMK AO2 SLP125 T01060050

TAF KBPI
Valide du 04 à 06h jusqu'au 05 à 06h UTC


040520Z 0406/0506 34007KT P6SM FEW100 SCT200
FM041700 29012G18KT P6SM FEW100 SCT250
FM050300 35006KT P6SM FEW250
FIR KZLC / Amérique du Nord



MET'MAP, la Météo Aéronautique d'un coup d'oeil ! - Copyright ORBIFLY Décembre 2007 - Disclaimer

ORBIFLY MET'MAP TEAM :

Programmation & Développement : Alexandra Zaïnal
Sur une idée originale de : Baudouin d'Aumeries
Assistance à la programmation : Marc-Olivier Méhu
Soutien technique & logistique : Manuel Goepfert

Contact : metmap@orbifly.com




SOURCES & CREDITS :

   NOAA       Earth
Advisory